Allerton, Iowa
Current Conditions -  °F | °C
As of 4:35 PM on Friday 24 Oct 2014 (Local Time) from KCNC Reporting Station
Haze Haze  
Wind Chill: 18°   Ceiling: 1100
Heat Index: 18°   Visibility: 5mi
Dew Point: 16°   Wind: 6mph
Humidity: 88%   Direction: 210°SSW
Pressure: 29.93"   Gusts: NA
Location:  40.71°N, 93.37°W
Report Text: KCNC 242135Z AUTO 21005KT 5SM BR OVC011 18/16 A2993 RMK AO2
Loading
Personal Weather Stations






























Interactive Weather Map
Tropical Storm Tracking
New forecast layout! Learn more

10-Day Weather Forecast

Advertisements
Track Severe Weather on mobile